sensor_id;sensor_type;location;lat;lon;timestamp;temperature;humidity
16267;DHT22;8241;48.786;9.250;2023-08-20T00:00:52;24.90;99.90
16267;DHT22;8241;48.786;9.250;2023-08-20T00:03:19;24.90;99.90
16267;DHT22;8241;48.786;9.250;2023-08-20T00:05:46;24.90;99.90
16267;DHT22;8241;48.786;9.250;2023-08-20T00:08:13;24.90;99.90
16267;DHT22;8241;48.786;9.250;2023-08-20T00:10:40;24.90;99.90
16267;DHT22;8241;48.786;9.250;2023-08-20T00:13:07;24.90;99.90
16267;DHT22;8241;48.786;9.250;2023-08-20T00:15:34;24.80;99.90
16267;DHT22;8241;48.786;9.250;2023-08-20T00:18:03;24.80;99.90
16267;DHT22;8241;48.786;9.250;2023-08-20T00:20:31;24.80;99.90
16267;DHT22;8241;48.786;9.250;2023-08-20T00:22:58;24.80;99.90
16267;DHT22;8241;48.786;9.250;2023-08-20T00:25:26;24.80;99.90
16267;DHT22;8241;48.786;9.250;2023-08-20T00:27:53;24.80;99.90
16267;DHT22;8241;48.786;9.250;2023-08-20T00:30:19;24.80;99.90
16267;DHT22;8241;48.786;9.250;2023-08-20T00:32:46;24.80;99.90
16267;DHT22;8241;48.786;9.250;2023-08-20T00:35:15;24.80;99.90
16267;DHT22;8241;48.786;9.250;2023-08-20T00:37:42;24.80;99.90
16267;DHT22;8241;48.786;9.250;2023-08-20T00:40:16;24.80;99.90
16267;DHT22;8241;48.786;9.250;2023-08-20T00:42:43;24.80;99.90
16267;DHT22;8241;48.786;9.250;2023-08-20T00:45:10;24.70;99.90
16267;DHT22;8241;48.786;9.250;2023-08-20T00:47:38;24.70;99.90
16267;DHT22;8241;48.786;9.250;2023-08-20T00:50:06;24.60;99.90
16267;DHT22;8241;48.786;9.250;2023-08-20T00:52:35;24.60;99.90
16267;DHT22;8241;48.786;9.250;2023-08-20T00:55:06;24.60;99.90
16267;DHT22;8241;48.786;9.250;2023-08-20T00:57:34;24.60;99.90
16267;DHT22;8241;48.786;9.250;2023-08-20T01:00:04;24.70;99.90
16267;DHT22;8241;48.786;9.250;2023-08-20T01:02:32;24.60;99.90
16267;DHT22;8241;48.786;9.250;2023-08-20T01:05:00;24.60;99.90
16267;DHT22;8241;48.786;9.250;2023-08-20T01:07:31;24.50;99.90
16267;DHT22;8241;48.786;9.250;2023-08-20T01:10:08;24.50;99.90
16267;DHT22;8241;48.786;9.250;2023-08-20T01:12:36;24.50;99.90
16267;DHT22;8241;48.786;9.250;2023-08-20T01:15:07;24.40;99.90
16267;DHT22;8241;48.786;9.250;2023-08-20T01:17:40;24.40;99.90
16267;DHT22;8241;48.786;9.250;2023-08-20T01:20:08;24.40;99.90
16267;DHT22;8241;48.786;9.250;2023-08-20T01:23:15;24.40;99.90
16267;DHT22;8241;48.786;9.250;2023-08-20T01:26:06;24.40;99.90
16267;DHT22;8241;48.786;9.250;2023-08-20T01:28:36;24.40;99.90
16267;DHT22;8241;48.786;9.250;2023-08-20T01:31:05;24.40;99.90
16267;DHT22;8241;48.786;9.250;2023-08-20T01:33:33;24.40;99.90
16267;DHT22;8241;48.786;9.250;2023-08-20T01:36:00;24.40;99.90
16267;DHT22;8241;48.786;9.250;2023-08-20T01:38:27;24.40;99.90
16267;DHT22;8241;48.786;9.250;2023-08-20T01:40:54;24.40;99.90
16267;DHT22;8241;48.786;9.250;2023-08-20T01:43:21;24.40;99.90
16267;DHT22;8241;48.786;9.250;2023-08-20T01:45:50;24.30;99.90
16267;DHT22;8241;48.786;9.250;2023-08-20T01:48:16;24.30;99.90
16267;DHT22;8241;48.786;9.250;2023-08-20T01:50:43;24.30;99.90
16267;DHT22;8241;48.786;9.250;2023-08-20T01:53:12;24.30;99.90
16267;DHT22;8241;48.786;9.250;2023-08-20T01:55:39;24.20;99.90
16267;DHT22;8241;48.786;9.250;2023-08-20T01:58:06;24.20;99.90
16267;DHT22;8241;48.786;9.250;2023-08-20T02:00:32;24.20;99.90
16267;DHT22;8241;48.786;9.250;2023-08-20T02:03:01;24.20;99.90
16267;DHT22;8241;48.786;9.250;2023-08-20T02:05:29;24.20;99.90
16267;DHT22;8241;48.786;9.250;2023-08-20T02:07:56;24.20;99.90
16267;DHT22;8241;48.786;9.250;2023-08-20T02:10:23;24.20;99.90
16267;DHT22;8241;48.786;9.250;2023-08-20T02:12:50;24.20;99.90
16267;DHT22;8241;48.786;9.250;2023-08-20T02:15:17;24.10;99.90
16267;DHT22;8241;48.786;9.250;2023-08-20T02:17:44;24.10;99.90
16267;DHT22;8241;48.786;9.250;2023-08-20T02:20:12;24.10;99.90
16267;DHT22;8241;48.786;9.250;2023-08-20T02:22:39;24.10;99.90
16267;DHT22;8241;48.786;9.250;2023-08-20T02:25:08;24.10;99.90
16267;DHT22;8241;48.786;9.250;2023-08-20T02:27:35;24.00;99.90
16267;DHT22;8241;48.786;9.250;2023-08-20T02:30:05;24.00;99.90
16267;DHT22;8241;48.786;9.250;2023-08-20T02:32:32;24.00;99.90
16267;DHT22;8241;48.786;9.250;2023-08-20T02:34:59;24.00;99.90
16267;DHT22;8241;48.786;9.250;2023-08-20T02:37:28;23.90;99.90
16267;DHT22;8241;48.786;9.250;2023-08-20T02:39:55;23.80;99.90
16267;DHT22;8241;48.786;9.250;2023-08-20T02:42:22;23.80;99.90
16267;DHT22;8241;48.786;9.250;2023-08-20T02:44:49;23.70;99.90
16267;DHT22;8241;48.786;9.250;2023-08-20T02:47:17;23.70;99.90
16267;DHT22;8241;48.786;9.250;2023-08-20T02:49:44;23.70;99.90
16267;DHT22;8241;48.786;9.250;2023-08-20T02:52:11;23.60;99.90
16267;DHT22;8241;48.786;9.250;2023-08-20T02:54:39;23.60;99.90
16267;DHT22;8241;48.786;9.250;2023-08-20T02:57:06;23.60;99.90
16267;DHT22;8241;48.786;9.250;2023-08-20T02:59:33;23.60;99.90
16267;DHT22;8241;48.786;9.250;2023-08-20T03:01:59;23.60;99.90
16267;DHT22;8241;48.786;9.250;2023-08-20T03:04:27;23.60;99.90
16267;DHT22;8241;48.786;9.250;2023-08-20T03:06:55;23.60;99.90
16267;DHT22;8241;48.786;9.250;2023-08-20T03:09:22;23.60;99.90
16267;DHT22;8241;48.786;9.250;2023-08-20T03:11:50;23.60;99.90
16267;DHT22;8241;48.786;9.250;2023-08-20T03:14:17;23.60;99.90
16267;DHT22;8241;48.786;9.250;2023-08-20T03:16:44;23.60;99.90
16267;DHT22;8241;48.786;9.250;2023-08-20T03:19:10;23.60;99.90
16267;DHT22;8241;48.786;9.250;2023-08-20T03:21:37;23.50;99.90
16267;DHT22;8241;48.786;9.250;2023-08-20T03:24:06;23.50;99.90
16267;DHT22;8241;48.786;9.250;2023-08-20T03:26:34;23.50;99.90
16267;DHT22;8241;48.786;9.250;2023-08-20T03:29:02;23.50;99.90
16267;DHT22;8241;48.786;9.250;2023-08-20T03:31:30;23.40;99.90
16267;DHT22;8241;48.786;9.250;2023-08-20T03:33:56;23.40;99.90
16267;DHT22;8241;48.786;9.250;2023-08-20T03:36:23;23.30;99.90
16267;DHT22;8241;48.786;9.250;2023-08-20T03:38:50;23.30;99.90
16267;DHT22;8241;48.786;9.250;2023-08-20T03:41:17;23.30;99.90
16267;DHT22;8241;48.786;9.250;2023-08-20T03:43:45;23.30;99.90
16267;DHT22;8241;48.786;9.250;2023-08-20T03:46:13;23.30;99.90
16267;DHT22;8241;48.786;9.250;2023-08-20T03:48:42;23.30;99.90
16267;DHT22;8241;48.786;9.250;2023-08-20T03:51:10;23.30;99.90
16267;DHT22;8241;48.786;9.250;2023-08-20T03:53:36;23.20;99.90
16267;DHT22;8241;48.786;9.250;2023-08-20T03:56:04;23.20;99.90
16267;DHT22;8241;48.786;9.250;2023-08-20T03:58:32;23.00;99.90
16267;DHT22;8241;48.786;9.250;2023-08-20T04:01:01;23.00;99.90
16267;DHT22;8241;48.786;9.250;2023-08-20T04:03:30;23.00;99.90
16267;DHT22;8241;48.786;9.250;2023-08-20T04:05:57;23.00;99.90
16267;DHT22;8241;48.786;9.250;2023-08-20T04:08:24;23.00;99.90
16267;DHT22;8241;48.786;9.250;2023-08-20T04:10:52;23.00;99.90
16267;DHT22;8241;48.786;9.250;2023-08-20T04:13:19;23.10;99.90
16267;DHT22;8241;48.786;9.250;2023-08-20T04:15:46;23.10;99.90
16267;DHT22;8241;48.786;9.250;2023-08-20T04:18:13;23.10;99.90
16267;DHT22;8241;48.786;9.250;2023-08-20T04:20:41;23.20;99.90
16267;DHT22;8241;48.786;9.250;2023-08-20T04:23:08;23.20;99.90
16267;DHT22;8241;48.786;9.250;2023-08-20T04:25:35;23.20;99.90
16267;DHT22;8241;48.786;9.250;2023-08-20T04:28:02;23.20;99.90
16267;DHT22;8241;48.786;9.250;2023-08-20T04:30:30;23.20;99.90
16267;DHT22;8241;48.786;9.250;2023-08-20T04:32:58;23.20;99.90
16267;DHT22;8241;48.786;9.250;2023-08-20T04:35:29;23.10;99.90
16267;DHT22;8241;48.786;9.250;2023-08-20T04:37:57;23.00;99.90
16267;DHT22;8241;48.786;9.250;2023-08-20T04:40:26;23.00;99.90
16267;DHT22;8241;48.786;9.250;2023-08-20T04:42:53;23.00;99.90
16267;DHT22;8241;48.786;9.250;2023-08-20T04:45:20;23.00;99.90
16267;DHT22;8241;48.786;9.250;2023-08-20T04:47:47;23.00;99.90
16267;DHT22;8241;48.786;9.250;2023-08-20T04:50:15;23.00;99.90
16267;DHT22;8241;48.786;9.250;2023-08-20T04:52:42;23.00;99.90
16267;DHT22;8241;48.786;9.250;2023-08-20T04:55:11;23.00;99.90
16267;DHT22;8241;48.786;9.250;2023-08-20T04:57:38;23.00;99.90
16267;DHT22;8241;48.786;9.250;2023-08-20T05:00:06;23.00;99.90
16267;DHT22;8241;48.786;9.250;2023-08-20T05:02:55;23.00;99.90
16267;DHT22;8241;48.786;9.250;2023-08-20T05:05:25;23.00;99.90
16267;DHT22;8241;48.786;9.250;2023-08-20T05:07:52;23.00;99.90
16267;DHT22;8241;48.786;9.250;2023-08-20T05:10:20;23.00;99.90
16267;DHT22;8241;48.786;9.250;2023-08-20T05:12:47;23.00;99.90
16267;DHT22;8241;48.786;9.250;2023-08-20T05:15:15;23.10;99.90
16267;DHT22;8241;48.786;9.250;2023-08-20T05:17:42;23.10;99.90
16267;DHT22;8241;48.786;9.250;2023-08-20T05:20:10;23.00;99.90
16267;DHT22;8241;48.786;9.250;2023-08-20T05:22:37;23.00;99.90
16267;DHT22;8241;48.786;9.250;2023-08-20T05:25:04;23.00;99.90
16267;DHT22;8241;48.786;9.250;2023-08-20T05:27:33;23.00;99.90
16267;DHT22;8241;48.786;9.250;2023-08-20T05:30:00;23.00;99.90
16267;DHT22;8241;48.786;9.250;2023-08-20T05:32:27;22.90;99.90
16267;DHT22;8241;48.786;9.250;2023-08-20T05:34:54;22.90;99.90
16267;DHT22;8241;48.786;9.250;2023-08-20T05:37:21;22.90;99.90
16267;DHT22;8241;48.786;9.250;2023-08-20T05:39:47;22.90;99.90
16267;DHT22;8241;48.786;9.250;2023-08-20T05:42:15;23.00;99.90
16267;DHT22;8241;48.786;9.250;2023-08-20T05:44:51;23.00;99.90
16267;DHT22;8241;48.786;9.250;2023-08-20T05:47:23;23.10;99.90
16267;DHT22;8241;48.786;9.250;2023-08-20T05:49:50;23.20;99.90
16267;DHT22;8241;48.786;9.250;2023-08-20T05:52:17;23.20;99.90
16267;DHT22;8241;48.786;9.250;2023-08-20T05:54:44;23.20;99.90
16267;DHT22;8241;48.786;9.250;2023-08-20T05:57:11;23.30;99.90
16267;DHT22;8241;48.786;9.250;2023-08-20T05:59:40;23.30;99.90
16267;DHT22;8241;48.786;9.250;2023-08-20T06:02:09;23.30;99.90
16267;DHT22;8241;48.786;9.250;2023-08-20T06:04:36;23.30;99.90
16267;DHT22;8241;48.786;9.250;2023-08-20T06:07:02;23.30;99.90
16267;DHT22;8241;48.786;9.250;2023-08-20T06:09:31;23.30;99.90
16267;DHT22;8241;48.786;9.250;2023-08-20T06:11:58;23.30;99.90
16267;DHT22;8241;48.786;9.250;2023-08-20T06:14:24;23.30;99.90
16267;DHT22;8241;48.786;9.250;2023-08-20T06:16:51;23.30;99.90
16267;DHT22;8241;48.786;9.250;2023-08-20T06:19:19;23.40;99.90
16267;DHT22;8241;48.786;9.250;2023-08-20T06:21:46;23.40;99.90
16267;DHT22;8241;48.786;9.250;2023-08-20T06:24:13;23.50;99.90
16267;DHT22;8241;48.786;9.250;2023-08-20T06:26:40;23.60;99.90
16267;DHT22;8241;48.786;9.250;2023-08-20T06:29:09;23.70;99.90
16267;DHT22;8241;48.786;9.250;2023-08-20T06:31:36;23.80;99.90
16267;DHT22;8241;48.786;9.250;2023-08-20T06:34:03;24.00;99.90
16267;DHT22;8241;48.786;9.250;2023-08-20T06:36:31;24.00;99.90
16267;DHT22;8241;48.786;9.250;2023-08-20T06:38:58;24.10;99.90
16267;DHT22;8241;48.786;9.250;2023-08-20T06:41:25;24.20;99.90
16267;DHT22;8241;48.786;9.250;2023-08-20T06:43:52;24.40;99.90
16267;DHT22;8241;48.786;9.250;2023-08-20T06:46:19;24.60;99.90
16267;DHT22;8241;48.786;9.250;2023-08-20T06:48:45;24.70;99.90
16267;DHT22;8241;48.786;9.250;2023-08-20T06:51:13;24.90;99.90
16267;DHT22;8241;48.786;9.250;2023-08-20T06:53:42;25.00;99.90
16267;DHT22;8241;48.786;9.250;2023-08-20T06:56:09;25.20;99.90
16267;DHT22;8241;48.786;9.250;2023-08-20T06:58:38;25.50;99.90
16267;DHT22;8241;48.786;9.250;2023-08-20T07:01:06;25.70;99.90
16267;DHT22;8241;48.786;9.250;2023-08-20T07:03:37;25.90;99.90
16267;DHT22;8241;48.786;9.250;2023-08-20T07:06:04;26.00;99.90
16267;DHT22;8241;48.786;9.250;2023-08-20T07:08:31;26.40;99.90
16267;DHT22;8241;48.786;9.250;2023-08-20T07:10:59;26.60;99.90
16267;DHT22;8241;48.786;9.250;2023-08-20T07:13:26;26.60;99.90
16267;DHT22;8241;48.786;9.250;2023-08-20T07:15:53;26.70;99.90
16267;DHT22;8241;48.786;9.250;2023-08-20T07:18:21;26.80;99.90
16267;DHT22;8241;48.786;9.250;2023-08-20T07:20:50;26.90;99.90
16267;DHT22;8241;48.786;9.250;2023-08-20T07:23:17;27.00;99.90
16267;DHT22;8241;48.786;9.250;2023-08-20T07:25:44;27.20;99.90
16267;DHT22;8241;48.786;9.250;2023-08-20T07:28:13;27.30;99.90
16267;DHT22;8241;48.786;9.250;2023-08-20T07:30:46;27.30;99.90
16267;DHT22;8241;48.786;9.250;2023-08-20T07:33:13;27.30;99.90
16267;DHT22;8241;48.786;9.250;2023-08-20T07:35:40;27.30;99.90
16267;DHT22;8241;48.786;9.250;2023-08-20T07:38:07;27.40;99.90
16267;DHT22;8241;48.786;9.250;2023-08-20T07:40:34;27.40;99.90
16267;DHT22;8241;48.786;9.250;2023-08-20T07:43:01;27.40;99.90
16267;DHT22;8241;48.786;9.250;2023-08-20T07:45:31;27.50;99.90
16267;DHT22;8241;48.786;9.250;2023-08-20T07:47:58;27.60;99.90
16267;DHT22;8241;48.786;9.250;2023-08-20T07:50:25;27.70;99.90
16267;DHT22;8241;48.786;9.250;2023-08-20T07:52:52;27.70;99.90
16267;DHT22;8241;48.786;9.250;2023-08-20T07:55:19;27.70;99.90
16267;DHT22;8241;48.786;9.250;2023-08-20T07:57:46;27.70;99.90
16267;DHT22;8241;48.786;9.250;2023-08-20T08:00:15;27.70;99.90
16267;DHT22;8241;48.786;9.250;2023-08-20T08:02:44;27.80;99.90
16267;DHT22;8241;48.786;9.250;2023-08-20T08:05:11;27.90;99.80
16267;DHT22;8241;48.786;9.250;2023-08-20T08:07:39;28.00;99.80
16267;DHT22;8241;48.786;9.250;2023-08-20T08:10:07;28.10;99.50
16267;DHT22;8241;48.786;9.250;2023-08-20T08:12:34;28.30;99.30
16267;DHT22;8241;48.786;9.250;2023-08-20T08:15:01;28.60;98.80
16267;DHT22;8241;48.786;9.250;2023-08-20T08:17:28;28.80;98.30
16267;DHT22;8241;48.786;9.250;2023-08-20T08:19:56;28.80;98.10
16267;DHT22;8241;48.786;9.250;2023-08-20T08:22:24;29.10;98.30
16267;DHT22;8241;48.786;9.250;2023-08-20T08:24:50;29.60;98.00
16267;DHT22;8241;48.786;9.250;2023-08-20T08:27:17;30.10;97.40
16267;DHT22;8241;48.786;9.250;2023-08-20T08:29:44;30.60;96.50
16267;DHT22;8241;48.786;9.250;2023-08-20T08:32:11;31.20;95.50
16267;DHT22;8241;48.786;9.250;2023-08-20T08:34:38;31.90;94.70
16267;DHT22;8241;48.786;9.250;2023-08-20T08:37:06;32.80;93.10
16267;DHT22;8241;48.786;9.250;2023-08-20T08:39:33;33.40;92.30
16267;DHT22;8241;48.786;9.250;2023-08-20T08:42:01;34.50;90.50
16267;DHT22;8241;48.786;9.250;2023-08-20T08:44:31;35.80;88.00
16267;DHT22;8241;48.786;9.250;2023-08-20T08:46:58;36.90;84.70
16267;DHT22;8241;48.786;9.250;2023-08-20T08:49:25;37.80;82.20
16267;DHT22;8241;48.786;9.250;2023-08-20T08:51:54;38.50;79.90
16267;DHT22;8241;48.786;9.250;2023-08-20T08:54:25;39.10;77.80
16267;DHT22;8241;48.786;9.250;2023-08-20T08:56:53;39.60;76.50
16267;DHT22;8241;48.786;9.250;2023-08-20T08:59:20;40.00;75.40
16267;DHT22;8241;48.786;9.250;2023-08-20T09:01:47;40.40;74.50
16267;DHT22;8241;48.786;9.250;2023-08-20T09:04:14;40.60;73.10
16267;DHT22;8241;48.786;9.250;2023-08-20T09:06:45;41.00;72.40
16267;DHT22;8241;48.786;9.250;2023-08-20T09:09:12;40.90;70.60
16267;DHT22;8241;48.786;9.250;2023-08-20T09:11:40;40.70;70.00
16267;DHT22;8241;48.786;9.250;2023-08-20T09:14:07;39.60;71.90
16267;DHT22;8241;48.786;9.250;2023-08-20T09:16:34;38.60;75.20
16267;DHT22;8241;48.786;9.250;2023-08-20T09:19:02;37.90;75.90
16267;DHT22;8241;48.786;9.250;2023-08-20T09:21:29;37.90;75.80
16267;DHT22;8241;48.786;9.250;2023-08-20T09:23:56;38.10;76.00
16267;DHT22;8241;48.786;9.250;2023-08-20T09:26:23;38.30;76.30
16267;DHT22;8241;48.786;9.250;2023-08-20T09:28:55;38.50;75.40
16267;DHT22;8241;48.786;9.250;2023-08-20T09:31:36;38.90;75.40
16267;DHT22;8241;48.786;9.250;2023-08-20T09:34:04;39.50;74.20
16267;DHT22;8241;48.786;9.250;2023-08-20T09:36:32;40.10;72.30
16267;DHT22;8241;48.786;9.250;2023-08-20T09:38:59;40.50;71.50
16267;DHT22;8241;48.786;9.250;2023-08-20T09:41:26;40.30;71.40
16267;DHT22;8241;48.786;9.250;2023-08-20T09:43:56;40.10;70.40
16267;DHT22;8241;48.786;9.250;2023-08-20T09:46:24;39.70;71.80
16267;DHT22;8241;48.786;9.250;2023-08-20T09:48:51;39.50;73.00
16267;DHT22;8241;48.786;9.250;2023-08-20T09:51:25;39.20;73.80
16267;DHT22;8241;48.786;9.250;2023-08-20T09:53:57;38.80;75.30
16267;DHT22;8241;48.786;9.250;2023-08-20T09:56:28;38.30;76.40
16267;DHT22;8241;48.786;9.250;2023-08-20T09:58:57;37.90;77.10
16267;DHT22;8241;48.786;9.250;2023-08-20T10:01:25;37.30;78.20
16267;DHT22;8241;48.786;9.250;2023-08-20T10:03:52;36.70;79.50
16267;DHT22;8241;48.786;9.250;2023-08-20T10:06:19;36.00;80.90
16267;DHT22;8241;48.786;9.250;2023-08-20T10:08:47;35.30;82.90
16267;DHT22;8241;48.786;9.250;2023-08-20T10:11:15;34.90;84.60
16267;DHT22;8241;48.786;9.250;2023-08-20T10:13:43;34.40;86.40
16267;DHT22;8241;48.786;9.250;2023-08-20T10:16:13;34.00;86.90
16267;DHT22;8241;48.786;9.250;2023-08-20T10:18:40;33.70;87.70
16267;DHT22;8241;48.786;9.250;2023-08-20T10:21:08;33.50;88.60
16267;DHT22;8241;48.786;9.250;2023-08-20T10:23:35;33.20;88.90
16267;DHT22;8241;48.786;9.250;2023-08-20T10:26:09;33.10;89.40
16267;DHT22;8241;48.786;9.250;2023-08-20T10:28:36;32.90;88.50
16267;DHT22;8241;48.786;9.250;2023-08-20T10:31:07;32.70;88.30
16267;DHT22;8241;48.786;9.250;2023-08-20T10:33:38;32.40;88.60
16267;DHT22;8241;48.786;9.250;2023-08-20T10:36:14;32.30;89.30
16267;DHT22;8241;48.786;9.250;2023-08-20T10:38:41;32.20;89.50
16267;DHT22;8241;48.786;9.250;2023-08-20T10:41:08;32.20;89.20
16267;DHT22;8241;48.786;9.250;2023-08-20T10:43:37;32.30;88.80
16267;DHT22;8241;48.786;9.250;2023-08-20T10:46:15;32.40;87.80
16267;DHT22;8241;48.786;9.250;2023-08-20T10:48:50;32.30;87.70
16267;DHT22;8241;48.786;9.250;2023-08-20T10:51:19;32.20;88.00
16267;DHT22;8241;48.786;9.250;2023-08-20T10:54:03;32.10;88.50
16267;DHT22;8241;48.786;9.250;2023-08-20T10:56:41;32.00;88.40
16267;DHT22;8241;48.786;9.250;2023-08-20T10:59:09;32.00;88.50
16267;DHT22;8241;48.786;9.250;2023-08-20T11:01:37;32.00;89.80
16267;DHT22;8241;48.786;9.250;2023-08-20T11:04:06;32.10;89.70
16267;DHT22;8241;48.786;9.250;2023-08-20T11:06:33;32.20;88.60
16267;DHT22;8241;48.786;9.250;2023-08-20T11:09:01;32.30;89.50
16267;DHT22;8241;48.786;9.250;2023-08-20T11:11:30;32.30;87.00
16267;DHT22;8241;48.786;9.250;2023-08-20T11:14:04;32.20;85.80
16267;DHT22;8241;48.786;9.250;2023-08-20T11:16:32;32.00;87.60
16267;DHT22;8241;48.786;9.250;2023-08-20T11:18:59;32.00;89.50
16267;DHT22;8241;48.786;9.250;2023-08-20T11:21:28;32.10;89.10
16267;DHT22;8241;48.786;9.250;2023-08-20T11:23:55;32.10;88.80
16267;DHT22;8241;48.786;9.250;2023-08-20T11:26:22;32.20;89.30
16267;DHT22;8241;48.786;9.250;2023-08-20T11:28:49;32.30;88.80
16267;DHT22;8241;48.786;9.250;2023-08-20T11:31:16;32.20;88.60
16267;DHT22;8241;48.786;9.250;2023-08-20T11:33:43;32.30;87.80
16267;DHT22;8241;48.786;9.250;2023-08-20T11:36:10;32.30;87.90
16267;DHT22;8241;48.786;9.250;2023-08-20T11:38:38;32.30;87.30
16267;DHT22;8241;48.786;9.250;2023-08-20T11:41:05;32.40;86.00
16267;DHT22;8241;48.786;9.250;2023-08-20T11:43:32;32.20;85.60
16267;DHT22;8241;48.786;9.250;2023-08-20T11:45:59;32.20;86.00
16267;DHT22;8241;48.786;9.250;2023-08-20T11:48:26;32.00;87.80
16267;DHT22;8241;48.786;9.250;2023-08-20T11:50:56;32.00;89.00
16267;DHT22;8241;48.786;9.250;2023-08-20T11:53:23;32.10;89.40
16267;DHT22;8241;48.786;9.250;2023-08-20T11:55:52;32.10;87.40
16267;DHT22;8241;48.786;9.250;2023-08-20T11:58:19;32.10;86.80
16267;DHT22;8241;48.786;9.250;2023-08-20T12:00:49;32.00;85.70
16267;DHT22;8241;48.786;9.250;2023-08-20T12:03:18;32.00;86.80
16267;DHT22;8241;48.786;9.250;2023-08-20T12:05:45;32.10;87.50
16267;DHT22;8241;48.786;9.250;2023-08-20T12:08:15;32.10;86.40
16267;DHT22;8241;48.786;9.250;2023-08-20T12:10:43;32.00;85.30
16267;DHT22;8241;48.786;9.250;2023-08-20T12:13:12;32.00;86.10
16267;DHT22;8241;48.786;9.250;2023-08-20T12:15:39;32.00;86.00
16267;DHT22;8241;48.786;9.250;2023-08-20T12:18:07;32.00;84.60
16267;DHT22;8241;48.786;9.250;2023-08-20T12:20:36;32.00;85.40
16267;DHT22;8241;48.786;9.250;2023-08-20T12:23:05;32.10;84.90
16267;DHT22;8241;48.786;9.250;2023-08-20T12:25:34;32.10;84.20
16267;DHT22;8241;48.786;9.250;2023-08-20T12:28:01;32.10;84.20
16267;DHT22;8241;48.786;9.250;2023-08-20T12:30:30;32.10;84.20
16267;DHT22;8241;48.786;9.250;2023-08-20T12:33:04;32.10;83.50
16267;DHT22;8241;48.786;9.250;2023-08-20T12:35:32;32.20;84.20
16267;DHT22;8241;48.786;9.250;2023-08-20T12:37:59;32.30;83.70
16267;DHT22;8241;48.786;9.250;2023-08-20T12:40:26;32.30;84.40
16267;DHT22;8241;48.786;9.250;2023-08-20T12:42:52;32.40;85.50
16267;DHT22;8241;48.786;9.250;2023-08-20T12:45:20;32.40;84.20
16267;DHT22;8241;48.786;9.250;2023-08-20T12:47:48;32.30;83.50
16267;DHT22;8241;48.786;9.250;2023-08-20T12:50:15;32.30;83.10
16267;DHT22;8241;48.786;9.250;2023-08-20T12:52:43;32.30;82.20
16267;DHT22;8241;48.786;9.250;2023-08-20T12:55:10;32.30;82.30
16267;DHT22;8241;48.786;9.250;2023-08-20T12:57:52;32.30;82.30
16267;DHT22;8241;48.786;9.250;2023-08-20T13:00:19;32.30;83.00
16267;DHT22;8241;48.786;9.250;2023-08-20T13:02:48;32.30;82.60
16267;DHT22;8241;48.786;9.250;2023-08-20T13:05:15;32.20;83.40
16267;DHT22;8241;48.786;9.250;2023-08-20T13:07:43;32.20;84.20
16267;DHT22;8241;48.786;9.250;2023-08-20T13:10:11;32.20;84.80
16267;DHT22;8241;48.786;9.250;2023-08-20T13:12:41;32.30;84.10
16267;DHT22;8241;48.786;9.250;2023-08-20T13:15:09;32.30;83.20
16267;DHT22;8241;48.786;9.250;2023-08-20T13:17:37;32.40;83.70
16267;DHT22;8241;48.786;9.250;2023-08-20T13:20:06;32.50;83.40
16267;DHT22;8241;48.786;9.250;2023-08-20T13:22:34;32.50;82.90
16267;DHT22;8241;48.786;9.250;2023-08-20T13:25:01;32.50;81.70
16267;DHT22;8241;48.786;9.250;2023-08-20T13:27:30;32.50;81.50
16267;DHT22;8241;48.786;9.250;2023-08-20T13:29:57;32.50;82.80
16267;DHT22;8241;48.786;9.250;2023-08-20T13:32:24;32.40;82.10
16267;DHT22;8241;48.786;9.250;2023-08-20T13:34:52;32.40;81.40
16267;DHT22;8241;48.786;9.250;2023-08-20T13:37:21;32.40;81.70
16267;DHT22;8241;48.786;9.250;2023-08-20T13:39:48;32.30;81.20
16267;DHT22;8241;48.786;9.250;2023-08-20T13:42:15;32.30;81.90
16267;DHT22;8241;48.786;9.250;2023-08-20T13:44:42;32.40;82.50
16267;DHT22;8241;48.786;9.250;2023-08-20T13:47:09;32.40;81.20
16267;DHT22;8241;48.786;9.250;2023-08-20T13:49:36;32.50;81.30
16267;DHT22;8241;48.786;9.250;2023-08-20T13:52:03;32.50;82.00
16267;DHT22;8241;48.786;9.250;2023-08-20T13:54:32;32.70;82.20
16267;DHT22;8241;48.786;9.250;2023-08-20T13:56:59;32.70;80.60
16267;DHT22;8241;48.786;9.250;2023-08-20T13:59:26;32.70;81.90
16267;DHT22;8241;48.786;9.250;2023-08-20T14:01:53;32.70;80.80
16267;DHT22;8241;48.786;9.250;2023-08-20T14:04:19;32.60;79.90
16267;DHT22;8241;48.786;9.250;2023-08-20T14:06:46;32.70;79.70
16267;DHT22;8241;48.786;9.250;2023-08-20T14:09:13;32.70;81.60
16267;DHT22;8241;48.786;9.250;2023-08-20T14:11:44;32.70;80.30
16267;DHT22;8241;48.786;9.250;2023-08-20T14:14:11;32.80;80.40
16267;DHT22;8241;48.786;9.250;2023-08-20T14:16:38;32.80;80.80
16267;DHT22;8241;48.786;9.250;2023-08-20T14:19:05;32.90;81.10
16267;DHT22;8241;48.786;9.250;2023-08-20T14:21:32;32.90;80.10
16267;DHT22;8241;48.786;9.250;2023-08-20T14:23:59;32.90;79.50
16267;DHT22;8241;48.786;9.250;2023-08-20T14:26:25;32.90;79.80
16267;DHT22;8241;48.786;9.250;2023-08-20T14:28:54;33.00;79.50
16267;DHT22;8241;48.786;9.250;2023-08-20T14:31:21;33.10;79.90
16267;DHT22;8241;48.786;9.250;2023-08-20T14:33:54;33.30;81.50
16267;DHT22;8241;48.786;9.250;2023-08-20T14:36:21;33.30;81.60
16267;DHT22;8241;48.786;9.250;2023-08-20T14:38:48;33.20;83.10
16267;DHT22;8241;48.786;9.250;2023-08-20T14:41:15;33.30;84.30
16267;DHT22;8241;48.786;9.250;2023-08-20T14:43:42;33.30;83.80
16267;DHT22;8241;48.786;9.250;2023-08-20T14:46:10;33.20;83.80
16267;DHT22;8241;48.786;9.250;2023-08-20T14:48:37;33.00;83.90
16267;DHT22;8241;48.786;9.250;2023-08-20T14:51:06;32.80;83.40
16267;DHT22;8241;48.786;9.250;2023-08-20T14:53:35;32.70;83.80
16267;DHT22;8241;48.786;9.250;2023-08-20T14:56:01;32.60;84.60
16267;DHT22;8241;48.786;9.250;2023-08-20T14:58:29;32.60;84.50
16267;DHT22;8241;48.786;9.250;2023-08-20T15:00:56;32.50;85.00
16267;DHT22;8241;48.786;9.250;2023-08-20T15:03:25;32.50;85.30
16267;DHT22;8241;48.786;9.250;2023-08-20T15:05:52;32.50;85.00
16267;DHT22;8241;48.786;9.250;2023-08-20T15:08:18;32.40;85.10
16267;DHT22;8241;48.786;9.250;2023-08-20T15:10:55;32.30;86.00
16267;DHT22;8241;48.786;9.250;2023-08-20T15:13:22;32.30;86.50
16267;DHT22;8241;48.786;9.250;2023-08-20T15:15:51;32.20;87.80
16267;DHT22;8241;48.786;9.250;2023-08-20T15:18:18;32.10;87.40
16267;DHT22;8241;48.786;9.250;2023-08-20T15:20:53;32.00;87.50
16267;DHT22;8241;48.786;9.250;2023-08-20T15:23:20;32.00;87.80
16267;DHT22;8241;48.786;9.250;2023-08-20T15:25:47;31.90;87.30
16267;DHT22;8241;48.786;9.250;2023-08-20T15:28:14;31.90;87.80
16267;DHT22;8241;48.786;9.250;2023-08-20T15:30:41;32.00;87.40
16267;DHT22;8241;48.786;9.250;2023-08-20T15:33:08;32.00;85.70
16267;DHT22;8241;48.786;9.250;2023-08-20T15:35:36;32.10;85.60
16267;DHT22;8241;48.786;9.250;2023-08-20T15:38:05;32.10;84.70
16267;DHT22;8241;48.786;9.250;2023-08-20T15:40:31;32.20;84.50
16267;DHT22;8241;48.786;9.250;2023-08-20T15:42:58;32.10;84.20
16267;DHT22;8241;48.786;9.250;2023-08-20T15:45:25;32.10;83.30
16267;DHT22;8241;48.786;9.250;2023-08-20T15:47:52;32.10;84.00
16267;DHT22;8241;48.786;9.250;2023-08-20T15:50:19;32.10;83.20